createdAt,value
2023-03-06T00:00:56.502Z,4.20
2023-03-06T00:03:27.742Z,4.20
2023-03-06T00:05:57.982Z,4.20
2023-03-06T00:08:27.676Z,4.20
2023-03-06T00:10:56.178Z,4.20
2023-03-06T00:13:24.499Z,4.20
2023-03-06T00:15:52.461Z,4.20
2023-03-06T00:18:20.468Z,4.20
2023-03-06T00:20:48.446Z,4.20
2023-03-06T00:23:17.770Z,4.20
2023-03-06T00:25:46.626Z,4.20
2023-03-06T00:28:15.682Z,4.20
2023-03-06T00:30:44.042Z,4.20
2023-03-06T00:33:12.140Z,4.10
2023-03-06T00:35:40.264Z,4.10
2023-03-06T00:38:08.307Z,4.10
2023-03-06T00:40:37.574Z,4.10
2023-03-06T00:43:05.512Z,4.10
2023-03-06T00:45:33.541Z,4.10
2023-03-06T00:48:01.582Z,4.00
2023-03-06T00:50:29.723Z,4.10
2023-03-06T00:52:57.672Z,4.00
2023-03-06T00:55:25.547Z,4.00
2023-03-06T00:57:54.795Z,4.00
2023-03-06T01:00:22.876Z,4.00
2023-03-06T01:02:50.916Z,4.00
2023-03-06T01:05:18.950Z,3.90
2023-03-06T01:07:46.849Z,3.90
2023-03-06T01:10:15.021Z,3.90
2023-03-06T01:12:43.024Z,3.90
2023-03-06T01:15:14.724Z,3.90
2023-03-06T01:17:42.649Z,3.90
2023-03-06T01:20:14.650Z,3.80
2023-03-06T01:22:42.536Z,3.80
2023-03-06T01:25:11.104Z,3.80
2023-03-06T01:27:39.037Z,3.80
2023-03-06T01:30:08.145Z,3.80
2023-03-06T01:32:37.413Z,3.80
2023-03-06T01:35:06.360Z,3.80
2023-03-06T01:37:36.098Z,3.80
2023-03-06T01:40:04.392Z,3.80
2023-03-06T01:42:32.342Z,3.80
2023-03-06T01:45:02.104Z,3.80
2023-03-06T01:47:30.121Z,3.80
2023-03-06T01:50:01.625Z,3.80
2023-03-06T01:52:32.262Z,3.80
2023-03-06T01:55:03.671Z,3.80
2023-03-06T01:57:35.060Z,3.70
2023-03-06T02:00:06.637Z,3.70
2023-03-06T02:02:34.798Z,3.80
2023-03-06T02:05:06.225Z,3.80
2023-03-06T02:07:35.501Z,3.70
2023-03-06T02:10:03.391Z,3.70
2023-03-06T02:12:31.844Z,3.70
2023-03-06T02:14:59.980Z,3.70
2023-03-06T02:17:28.862Z,3.70
2023-03-06T02:20:04.015Z,3.70
2023-03-06T02:22:38.529Z,3.70
2023-03-06T02:25:12.244Z,3.70
2023-03-06T02:27:42.090Z,3.80
2023-03-06T02:30:11.892Z,3.70
2023-03-06T02:32:39.783Z,3.80
2023-03-06T02:35:14.698Z,3.70
2023-03-06T02:37:42.649Z,3.80
2023-03-06T02:40:14.393Z,3.80
2023-03-06T02:42:48.903Z,3.80
2023-03-06T02:45:21.325Z,3.80
2023-03-06T02:47:49.252Z,3.80
2023-03-06T02:50:17.664Z,3.80
2023-03-06T02:52:45.577Z,3.80
2023-03-06T02:55:13.542Z,3.80
2023-03-06T02:57:41.474Z,3.80
2023-03-06T03:00:13.057Z,3.80
2023-03-06T03:02:41.163Z,3.80
2023-03-06T03:05:10.066Z,3.80
2023-03-06T03:07:38.228Z,3.80
2023-03-06T03:10:08.445Z,3.80
2023-03-06T03:12:36.425Z,3.80
2023-03-06T03:15:04.705Z,3.80
2023-03-06T03:17:36.943Z,3.80
2023-03-06T03:20:05.980Z,3.80
2023-03-06T03:22:34.022Z,3.80
2023-03-06T03:25:02.016Z,3.80
2023-03-06T03:27:30.003Z,3.70
2023-03-06T03:29:58.802Z,3.80
2023-03-06T03:32:27.471Z,3.80
2023-03-06T03:34:57.753Z,3.80
2023-03-06T03:37:25.713Z,3.80
2023-03-06T03:39:53.808Z,3.80
2023-03-06T03:42:21.785Z,3.80
2023-03-06T03:44:49.804Z,3.80
2023-03-06T03:47:17.797Z,3.80
2023-03-06T03:49:45.808Z,3.80
2023-03-06T03:52:15.041Z,3.80
2023-03-06T03:54:44.468Z,3.80
2023-03-06T03:57:12.440Z,3.80
2023-03-06T03:59:40.498Z,3.80
2023-03-06T04:02:08.564Z,3.80
2023-03-06T04:04:36.566Z,3.80
2023-03-06T04:07:04.992Z,3.90
2023-03-06T04:09:34.275Z,3.80
2023-03-06T04:12:02.216Z,3.80
2023-03-06T04:14:30.188Z,3.80
2023-03-06T04:16:59.493Z,3.80
2023-03-06T04:19:27.473Z,3.90
2023-03-06T04:21:55.299Z,3.80
2023-03-06T04:24:23.217Z,3.80
2023-03-06T04:26:52.614Z,3.80
2023-03-06T04:29:20.479Z,3.80
2023-03-06T04:31:48.435Z,3.80
2023-03-06T04:34:16.295Z,3.80
2023-03-06T04:36:45.317Z,3.80
2023-03-06T04:39:14.105Z,3.80
2023-03-06T04:41:42.311Z,3.80
2023-03-06T04:44:11.720Z,3.80
2023-03-06T04:46:39.594Z,3.80
2023-03-06T04:49:07.577Z,3.80
2023-03-06T04:51:36.758Z,3.80
2023-03-06T04:54:06.465Z,3.90
2023-03-06T04:56:34.896Z,3.80
2023-03-06T04:59:04.170Z,3.80
2023-03-06T05:01:33.378Z,3.80
2023-03-06T05:04:01.229Z,3.80
2023-03-06T05:06:29.087Z,3.80
2023-03-06T05:08:57.112Z,3.80
2023-03-06T05:11:25.096Z,3.90
2023-03-06T05:13:53.003Z,3.80
2023-03-06T05:16:20.965Z,3.90
2023-03-06T05:18:50.732Z,3.90
2023-03-06T05:21:18.740Z,3.80
2023-03-06T05:23:47.518Z,3.80
2023-03-06T05:26:16.271Z,3.90
2023-03-06T05:28:44.702Z,3.80
2023-03-06T05:31:12.636Z,3.80
2023-03-06T05:33:40.633Z,3.80
2023-03-06T05:36:10.825Z,3.80
2023-03-06T05:38:38.786Z,3.90
2023-03-06T05:41:06.781Z,3.80
2023-03-06T05:43:34.687Z,3.80
2023-03-06T05:46:03.489Z,3.80
2023-03-06T05:48:31.511Z,3.80
2023-03-06T05:51:00.421Z,3.80
2023-03-06T05:53:30.000Z,3.80
2023-03-06T05:55:59.064Z,3.80
2023-03-06T05:58:27.311Z,3.80
2023-03-06T06:00:55.232Z,3.80
2023-03-06T06:03:23.508Z,3.80
2023-03-06T06:05:52.354Z,3.80
2023-03-06T06:08:21.428Z,3.80
2023-03-06T06:10:53.298Z,3.80
2023-03-06T06:13:21.403Z,3.80
2023-03-06T06:15:50.418Z,3.80
2023-03-06T06:18:18.336Z,3.80
2023-03-06T06:20:46.191Z,3.80
2023-03-06T06:23:14.282Z,3.80
2023-03-06T06:25:42.536Z,3.70
2023-03-06T06:28:12.365Z,3.70
2023-03-06T06:30:40.264Z,3.70
2023-03-06T06:33:08.109Z,3.70
2023-03-06T06:35:37.566Z,3.70
2023-03-06T06:38:05.587Z,3.80
2023-03-06T06:40:33.482Z,3.70
2023-03-06T06:43:01.373Z,3.70
2023-03-06T06:45:30.728Z,3.70
2023-03-06T06:47:58.804Z,3.80
2023-03-06T06:50:26.966Z,3.80
2023-03-06T06:52:55.001Z,3.80
2023-03-06T06:55:22.896Z,3.80
2023-03-06T06:57:50.769Z,3.90
2023-03-06T07:00:20.009Z,3.90
2023-03-06T07:02:51.200Z,3.90
2023-03-06T07:05:21.110Z,3.90
2023-03-06T07:07:51.270Z,3.90
2023-03-06T07:10:20.743Z,4.00
2023-03-06T07:12:49.059Z,4.00
2023-03-06T07:15:17.984Z,4.00
2023-03-06T07:17:50.062Z,4.00
2023-03-06T07:20:20.882Z,4.00
2023-03-06T07:22:51.667Z,4.10
2023-03-06T07:25:20.687Z,4.10
2023-03-06T07:27:53.423Z,4.10
2023-03-06T07:30:22.850Z,4.20
2023-03-06T07:32:54.226Z,4.20
2023-03-06T07:35:24.219Z,4.30
2023-03-06T07:37:52.214Z,4.30
2023-03-06T07:40:20.899Z,4.40
2023-03-06T07:42:49.002Z,4.40
2023-03-06T07:45:17.381Z,4.40
2023-03-06T07:47:45.329Z,4.40
2023-03-06T07:50:13.574Z,4.50
2023-03-06T07:52:42.971Z,4.40
2023-03-06T07:55:11.859Z,4.50
2023-03-06T07:57:40.084Z,4.50
2023-03-06T08:00:11.360Z,4.50
2023-03-06T08:02:39.332Z,4.50
2023-03-06T08:05:08.913Z,4.60
2023-03-06T08:07:36.979Z,4.60
2023-03-06T08:10:07.236Z,4.60
2023-03-06T08:12:35.106Z,4.70
2023-03-06T08:15:03.482Z,4.70
2023-03-06T08:17:31.389Z,4.80
2023-03-06T08:19:59.399Z,4.90
2023-03-06T08:22:27.391Z,4.90
2023-03-06T08:24:56.339Z,5.00
2023-03-06T08:27:25.705Z,5.00
2023-03-06T08:29:53.650Z,5.10
2023-03-06T08:32:21.680Z,5.20
2023-03-06T08:34:49.629Z,5.30
2023-03-06T08:37:17.536Z,5.50
2023-03-06T08:39:45.462Z,5.60
2023-03-06T08:42:13.747Z,5.80
2023-03-06T08:44:43.221Z,6.00
2023-03-06T08:47:11.164Z,6.20
2023-03-06T08:49:39.729Z,6.30
2023-03-06T08:52:08.314Z,6.50
2023-03-06T08:54:36.699Z,6.50
2023-03-06T08:57:04.761Z,6.60
2023-03-06T08:59:32.696Z,6.60
2023-03-06T09:02:05.348Z,6.60
2023-03-06T09:04:33.412Z,6.60
2023-03-06T09:07:02.306Z,6.60
2023-03-06T09:09:32.839Z,6.60
2023-03-06T09:12:00.740Z,6.60
2023-03-06T09:14:28.728Z,6.60
2023-03-06T09:16:56.801Z,6.60
2023-03-06T09:19:26.041Z,6.60
2023-03-06T09:21:54.069Z,6.60
2023-03-06T09:24:22.112Z,6.60
2023-03-06T09:26:51.596Z,6.60
2023-03-06T09:29:19.759Z,6.50
2023-03-06T09:31:47.687Z,6.60
2023-03-06T09:34:15.765Z,6.60
2023-03-06T09:36:56.652Z,6.50
2023-03-06T09:39:27.177Z,6.50
2023-03-06T09:41:56.729Z,6.40
2023-03-06T09:44:27.744Z,6.40
2023-03-06T09:47:10.933Z,6.40
2023-03-06T09:49:47.246Z,6.50
2023-03-06T09:52:31.745Z,6.60
2023-03-06T09:55:03.926Z,6.60
2023-03-06T09:57:36.259Z,6.70
2023-03-06T10:00:11.689Z,6.60
2023-03-06T10:02:44.205Z,6.50
2023-03-06T10:05:18.728Z,6.50
2023-03-06T10:07:53.925Z,6.40
2023-03-06T10:10:25.436Z,6.30
2023-03-06T10:13:04.030Z,6.30
2023-03-06T10:15:36.102Z,6.20
2023-03-06T10:18:04.922Z,6.20
2023-03-06T10:20:38.378Z,6.20
2023-03-06T10:23:30.175Z,6.20
2023-03-06T10:26:02.346Z,6.30
2023-03-06T10:28:37.028Z,6.40
2023-03-06T10:31:12.067Z,6.50
2023-03-06T10:33:53.255Z,6.60
2023-03-06T10:36:25.415Z,6.80
2023-03-06T10:38:56.200Z,6.80
2023-03-06T10:41:27.565Z,6.90
2023-03-06T10:44:24.666Z,6.90
2023-03-06T10:46:55.654Z,6.80
2023-03-06T10:49:30.962Z,6.90
2023-03-06T10:52:01.939Z,6.90
2023-03-06T10:54:33.400Z,6.90
2023-03-06T10:57:20.044Z,6.90
2023-03-06T10:59:55.786Z,6.90
2023-03-06T11:02:31.619Z,6.90
2023-03-06T11:05:01.303Z,6.80
2023-03-06T11:07:30.591Z,6.80
2023-03-06T11:10:17.865Z,6.70
2023-03-06T11:12:58.555Z,6.60
2023-03-06T11:15:27.358Z,6.60
2023-03-06T11:17:59.396Z,6.50
2023-03-06T11:20:41.514Z,6.40
2023-03-06T11:23:19.767Z,6.40
2023-03-06T11:25:53.270Z,6.40
2023-03-06T11:28:26.162Z,6.40
2023-03-06T11:30:57.630Z,6.40
2023-03-06T11:33:31.707Z,6.30
2023-03-06T11:36:05.408Z,6.30
2023-03-06T11:38:41.319Z,6.30
2023-03-06T11:41:20.209Z,6.30
2023-03-06T11:43:55.960Z,6.30
2023-03-06T11:46:29.244Z,6.30
2023-03-06T11:49:02.781Z,6.30
2023-03-06T11:51:35.663Z,6.40
2023-03-06T11:54:04.001Z,6.40
2023-03-06T11:56:43.744Z,6.50
2023-03-06T11:59:33.423Z,6.50
2023-03-06T12:02:15.802Z,6.50
2023-03-06T12:04:52.556Z,6.60
2023-03-06T12:07:30.239Z,6.60
2023-03-06T12:10:09.911Z,6.70
2023-03-06T12:13:12.051Z,6.70
2023-03-06T12:16:00.228Z,6.80
2023-03-06T12:18:39.116Z,6.80
2023-03-06T12:21:14.773Z,6.90
2023-03-06T12:24:04.623Z,7.00
2023-03-06T12:27:01.679Z,7.00
2023-03-06T12:29:51.270Z,7.10
2023-03-06T12:32:31.753Z,7.20
2023-03-06T12:35:14.137Z,7.20
2023-03-06T12:37:53.475Z,7.20
2023-03-06T12:40:51.821Z,7.10
2023-03-06T12:43:53.606Z,7.10
2023-03-06T12:46:25.233Z,7.10
2023-03-06T12:49:12.400Z,7.10
2023-03-06T12:51:44.335Z,7.20
2023-03-06T12:54:15.080Z,7.20
2023-03-06T12:56:43.942Z,7.30
2023-03-06T12:59:44.485Z,7.40
2023-03-06T13:03:00.444Z,7.50
2023-03-06T13:05:43.342Z,7.70
2023-03-06T13:08:34.170Z,7.90
2023-03-06T13:11:37.999Z,8.10
2023-03-06T13:14:23.642Z,8.20
2023-03-06T13:16:51.757Z,8.40
2023-03-06T13:19:22.431Z,8.50
2023-03-06T13:22:16.526Z,8.50
2023-03-06T13:24:45.458Z,8.40
2023-03-06T13:27:33.746Z,8.40
2023-03-06T13:30:23.153Z,8.30
2023-03-06T13:32:53.840Z,8.10
2023-03-06T13:35:52.426Z,8.00
2023-03-06T13:38:37.257Z,7.90
2023-03-06T13:41:28.235Z,7.80
2023-03-06T13:43:57.998Z,7.60
2023-03-06T13:46:30.084Z,7.50
2023-03-06T13:49:07.038Z,7.40
2023-03-06T13:51:37.538Z,7.40
2023-03-06T13:54:26.578Z,7.30
2023-03-06T13:57:33.180Z,7.20
2023-03-06T14:00:38.536Z,7.20
2023-03-06T14:03:37.884Z,7.10
2023-03-06T14:06:40.664Z,7.10
2023-03-06T14:09:20.125Z,7.10
2023-03-06T14:11:52.554Z,7.00
2023-03-06T14:14:24.885Z,7.00
2023-03-06T14:16:54.128Z,6.90
2023-03-06T14:19:22.706Z,6.90
2023-03-06T14:21:57.886Z,6.90
2023-03-06T14:24:34.620Z,6.90
2023-03-06T14:27:02.588Z,6.90
2023-03-06T14:29:31.075Z,6.90
2023-03-06T14:32:00.269Z,6.90
2023-03-06T14:34:29.933Z,6.90
2023-03-06T14:37:01.055Z,6.90
2023-03-06T14:39:35.123Z,6.90
2023-03-06T14:42:07.513Z,6.80
2023-03-06T14:44:35.591Z,6.80
2023-03-06T14:47:23.823Z,6.70
2023-03-06T14:50:19.407Z,6.70
2023-03-06T14:52:47.611Z,6.60
2023-03-06T14:55:19.893Z,6.60
2023-03-06T14:57:51.279Z,6.60
2023-03-06T15:00:22.232Z,6.60
2023-03-06T15:02:52.424Z,6.60
2023-03-06T15:05:23.629Z,6.60
2023-03-06T15:07:53.782Z,6.60
2023-03-06T15:10:26.174Z,6.60
2023-03-06T15:12:54.488Z,6.50
2023-03-06T15:15:28.808Z,6.60
2023-03-06T15:17:56.712Z,6.60
2023-03-06T15:20:47.154Z,6.60
2023-03-06T15:23:22.837Z,6.60
2023-03-06T15:25:57.161Z,6.60
2023-03-06T15:28:29.514Z,6.60
2023-03-06T15:31:19.466Z,6.70
2023-03-06T15:34:02.565Z,6.70
2023-03-06T15:36:32.664Z,6.80
2023-03-06T15:39:00.869Z,6.80
2023-03-06T15:41:34.635Z,6.90
2023-03-06T15:44:04.515Z,6.80
2023-03-06T15:46:32.415Z,6.80
2023-03-06T15:49:03.212Z,6.80
2023-03-06T15:51:31.803Z,6.70
2023-03-06T15:54:11.235Z,6.70
2023-03-06T15:56:43.145Z,6.60
2023-03-06T15:59:17.949Z,6.60
2023-03-06T16:01:45.928Z,6.50
2023-03-06T16:04:14.009Z,6.50
2023-03-06T16:06:42.140Z,6.50
2023-03-06T16:09:10.935Z,6.40
2023-03-06T16:11:43.954Z,6.30
2023-03-06T16:14:21.285Z,6.30
2023-03-06T16:16:50.087Z,6.20
2023-03-06T16:19:28.182Z,6.10
2023-03-06T16:21:56.686Z,6.00
2023-03-06T16:24:26.007Z,6.00
2023-03-06T16:26:55.759Z,6.00
2023-03-06T16:29:27.250Z,6.00
2023-03-06T16:31:57.114Z,5.90
2023-03-06T16:34:25.509Z,5.90
2023-03-06T16:36:53.414Z,5.90
2023-03-06T16:39:22.992Z,5.80
2023-03-06T16:41:51.837Z,5.80
2023-03-06T16:44:19.830Z,5.80
2023-03-06T16:46:50.903Z,5.70
2023-03-06T16:49:20.640Z,5.70
2023-03-06T16:51:49.002Z,5.70
2023-03-06T16:54:17.122Z,5.70
2023-03-06T16:56:45.912Z,5.70
2023-03-06T16:59:13.962Z,5.70
2023-03-06T17:01:43.145Z,5.60
2023-03-06T17:04:12.870Z,5.60
2023-03-06T17:06:41.602Z,5.60
2023-03-06T17:09:10.924Z,5.60
2023-03-06T17:11:42.743Z,5.60
2023-03-06T17:14:10.667Z,5.50
2023-03-06T17:16:40.260Z,5.50
2023-03-06T17:19:08.810Z,5.50
2023-03-06T17:21:38.517Z,5.50
2023-03-06T17:24:07.378Z,5.40
2023-03-06T17:26:36.522Z,5.40
2023-03-06T17:29:06.857Z,5.30
2023-03-06T17:31:34.913Z,5.30
2023-03-06T17:34:02.804Z,5.20
2023-03-06T17:36:31.501Z,5.20
2023-03-06T17:39:02.143Z,5.10
2023-03-06T17:41:30.198Z,5.10
2023-03-06T17:43:58.846Z,5.00
2023-03-06T17:46:27.306Z,4.90
2023-03-06T17:48:56.415Z,4.90
2023-03-06T17:51:24.488Z,4.80
2023-03-06T17:53:53.285Z,4.80
2023-03-06T17:56:22.496Z,4.80
2023-03-06T17:58:50.424Z,4.70
2023-03-06T18:01:20.630Z,4.70
2023-03-06T18:03:50.725Z,4.70
2023-03-06T18:06:20.669Z,4.60
2023-03-06T18:08:51.031Z,4.60
2023-03-06T18:11:22.085Z,4.60
2023-03-06T18:13:50.027Z,4.60
2023-03-06T18:16:19.640Z,4.60
2023-03-06T18:18:48.281Z,4.50
2023-03-06T18:21:16.910Z,4.50
2023-03-06T18:23:44.941Z,4.50
2023-03-06T18:26:14.478Z,4.50
2023-03-06T18:28:45.486Z,4.50
2023-03-06T18:31:17.501Z,4.50
2023-03-06T18:33:45.565Z,4.50
2023-03-06T18:36:13.447Z,4.50
2023-03-06T18:38:43.853Z,4.60
2023-03-06T18:41:12.753Z,4.60
2023-03-06T18:43:41.123Z,4.60
2023-03-06T18:46:10.814Z,4.60
2023-03-06T18:48:39.428Z,4.60
2023-03-06T18:51:09.005Z,4.60
2023-03-06T18:53:37.622Z,4.60
2023-03-06T18:56:05.887Z,4.70
2023-03-06T18:58:33.924Z,4.70
2023-03-06T19:01:07.228Z,4.70
2023-03-06T19:03:36.645Z,4.70
2023-03-06T19:06:06.401Z,4.80
2023-03-06T19:08:34.973Z,4.80
2023-03-06T19:11:04.461Z,4.80
2023-03-06T19:13:32.767Z,4.80
2023-03-06T19:16:00.880Z,4.80
2023-03-06T19:18:30.138Z,4.90
2023-03-06T19:21:10.072Z,4.90
2023-03-06T19:23:39.404Z,4.90
2023-03-06T19:26:07.880Z,4.90
2023-03-06T19:28:36.945Z,4.90
2023-03-06T19:31:12.914Z,4.90
2023-03-06T19:33:41.635Z,5.00
2023-03-06T19:36:13.057Z,5.00
2023-03-06T19:38:41.345Z,5.00
2023-03-06T19:41:13.559Z,5.00
2023-03-06T19:43:42.177Z,5.00
2023-03-06T19:46:13.004Z,5.00
2023-03-06T19:48:41.079Z,5.00
2023-03-06T19:51:11.215Z,5.00
2023-03-06T19:53:39.861Z,5.00
2023-03-06T19:56:10.424Z,5.00
2023-03-06T19:58:40.495Z,5.00
2023-03-06T20:01:10.910Z,5.00
2023-03-06T20:03:39.132Z,5.00
2023-03-06T20:06:09.204Z,5.00
2023-03-06T20:08:38.611Z,5.00
2023-03-06T20:11:06.578Z,5.00
2023-03-06T20:13:34.479Z,5.00
2023-03-06T20:16:04.342Z,5.00
2023-03-06T20:18:32.246Z,4.90
2023-03-06T20:21:01.539Z,5.00
2023-03-06T20:23:29.738Z,5.00
2023-03-06T20:26:02.917Z,5.00
2023-03-06T20:28:31.080Z,5.00
2023-03-06T20:30:58.970Z,5.00
2023-03-06T20:33:27.843Z,5.00
2023-03-06T20:35:55.787Z,5.00
2023-03-06T20:38:23.739Z,5.00
2023-03-06T20:40:54.582Z,5.00
2023-03-06T20:43:23.847Z,5.00
2023-03-06T20:45:59.055Z,5.00
2023-03-06T20:48:27.081Z,5.00
2023-03-06T20:51:02.206Z,5.10
2023-03-06T20:53:30.153Z,5.00
2023-03-06T20:55:58.172Z,5.10
2023-03-06T20:58:30.145Z,5.00
2023-03-06T21:00:58.207Z,5.00
2023-03-06T21:03:26.362Z,5.00
2023-03-06T21:05:54.309Z,5.00
2023-03-06T21:08:22.201Z,5.00
2023-03-06T21:10:50.728Z,4.90
2023-03-06T21:13:18.939Z,4.90
2023-03-06T21:15:48.314Z,4.90
2023-03-06T21:18:16.239Z,4.90
2023-03-06T21:20:44.260Z,4.80
2023-03-06T21:23:12.225Z,4.80
2023-03-06T21:25:48.560Z,4.80
2023-03-06T21:28:16.626Z,4.80
2023-03-06T21:30:44.956Z,4.80
2023-03-06T21:33:15.999Z,4.80
2023-03-06T21:35:44.847Z,4.80
2023-03-06T21:38:14.077Z,4.80
2023-03-06T21:40:42.961Z,4.80
2023-03-06T21:43:11.085Z,4.90
2023-03-06T21:45:39.007Z,4.90
2023-03-06T21:48:07.366Z,4.90
2023-03-06T21:50:36.633Z,4.90
2023-03-06T21:53:04.601Z,4.90
2023-03-06T21:55:32.693Z,5.00
2023-03-06T21:58:00.644Z,4.90
2023-03-06T22:00:28.623Z,5.00
2023-03-06T22:02:57.167Z,5.00
2023-03-06T22:05:25.762Z,5.00
2023-03-06T22:07:55.021Z,5.00
2023-03-06T22:10:22.902Z,5.00
2023-03-06T22:12:50.901Z,5.00
2023-03-06T22:15:20.394Z,5.00
2023-03-06T22:17:48.675Z,5.00
2023-03-06T22:20:16.993Z,5.00
2023-03-06T22:22:44.884Z,5.00
2023-03-06T22:25:14.762Z,5.00
2023-03-06T22:27:42.713Z,5.00
2023-03-06T22:30:11.735Z,5.00
2023-03-06T22:32:39.668Z,5.00
2023-03-06T22:35:08.369Z,5.00
2023-03-06T22:37:36.393Z,5.00
2023-03-06T22:40:04.541Z,5.00
2023-03-06T22:42:34.168Z,5.00
2023-03-06T22:45:02.056Z,5.00
2023-03-06T22:47:29.945Z,5.00
2023-03-06T22:49:57.785Z,4.90
2023-03-06T22:52:25.707Z,5.00
2023-03-06T22:54:53.611Z,5.00
2023-03-06T22:57:23.613Z,5.00
2023-03-06T22:59:52.864Z,5.00
2023-03-06T23:02:20.712Z,5.00
2023-03-06T23:04:52.352Z,5.00
2023-03-06T23:07:20.468Z,5.00
2023-03-06T23:09:48.357Z,5.00
2023-03-06T23:12:16.271Z,5.00
2023-03-06T23:14:46.718Z,5.00
2023-03-06T23:17:16.041Z,4.90
2023-03-06T23:19:43.989Z,4.90
2023-03-06T23:22:12.254Z,4.90
2023-03-06T23:24:40.235Z,4.90
2023-03-06T23:27:08.227Z,4.80
2023-03-06T23:29:36.150Z,4.80
2023-03-06T23:32:04.364Z,4.80
2023-03-06T23:34:33.672Z,4.80
2023-03-06T23:37:01.718Z,4.80
2023-03-06T23:39:30.626Z,4.70
2023-03-06T23:41:58.485Z,4.70
2023-03-06T23:44:26.394Z,4.70
2023-03-06T23:46:54.328Z,4.70
2023-03-06T23:49:22.179Z,4.70
2023-03-06T23:51:51.357Z,4.70
2023-03-06T23:54:19.203Z,4.70
2023-03-06T23:56:47.073Z,4.60
2023-03-06T23:59:15.053Z,4.60
